createdAt,value
2023-01-24T00:01:13.622Z,24.85
2023-01-24T00:03:40.279Z,17.23
2023-01-24T00:06:06.643Z,14.98
2023-01-24T00:08:32.879Z,15.27
2023-01-24T00:11:02.611Z,13.48
2023-01-24T00:13:29.213Z,14.70
2023-01-24T00:16:05.852Z,14.05
2023-01-24T00:18:33.908Z,13.00
2023-01-24T00:21:04.399Z,14.13
2023-01-24T00:23:30.777Z,13.20
2023-01-24T00:25:57.051Z,13.90
2023-01-24T00:28:23.335Z,13.80
2023-01-24T00:30:49.633Z,14.13
2023-01-24T00:33:15.930Z,14.00
2023-01-24T00:35:42.155Z,13.90
2023-01-24T00:38:08.455Z,14.20
2023-01-24T00:40:34.702Z,14.18
2023-01-24T00:43:01.000Z,14.93
2023-01-24T00:45:27.321Z,14.43
2023-01-24T00:47:53.649Z,13.77
2023-01-24T00:50:20.208Z,15.95
2023-01-24T00:52:46.736Z,14.10
2023-01-24T00:55:13.091Z,14.95
2023-01-24T00:57:39.331Z,14.95
2023-01-24T01:00:05.780Z,14.85
2023-01-24T01:02:32.122Z,15.45
2023-01-24T01:04:58.516Z,16.02
2023-01-24T01:07:25.800Z,15.30
2023-01-24T01:09:52.105Z,14.68
2023-01-24T01:12:18.379Z,14.40
2023-01-24T01:14:44.676Z,15.10
2023-01-24T01:17:12.156Z,14.93
2023-01-24T01:19:38.463Z,14.63
2023-01-24T01:22:04.699Z,15.18
2023-01-24T01:24:31.001Z,15.15
2023-01-24T01:26:57.231Z,14.45
2023-01-24T01:29:23.479Z,15.40
2023-01-24T01:31:49.974Z,14.80
2023-01-24T01:34:16.461Z,15.20
2023-01-24T01:36:42.734Z,16.48
2023-01-24T01:39:09.027Z,15.63
2023-01-24T01:41:35.305Z,16.08
2023-01-24T01:44:38.772Z,15.52
2023-01-24T01:47:17.453Z,14.18
2023-01-24T01:49:46.598Z,14.02
2023-01-24T01:52:12.980Z,14.85
2023-01-24T01:54:41.665Z,14.73
2023-01-24T01:57:11.388Z,14.43
2023-01-24T01:59:43.237Z,14.80
2023-01-24T02:02:09.874Z,13.77
2023-01-24T02:04:37.083Z,14.80
2023-01-24T02:07:07.695Z,13.07
2023-01-24T02:09:37.526Z,14.00
2023-01-24T02:12:06.197Z,13.80
2023-01-24T02:14:51.515Z,12.73
2023-01-24T02:17:18.612Z,13.68
2023-01-24T02:19:51.522Z,12.93
2023-01-24T02:22:22.218Z,12.45
2023-01-24T02:27:14.721Z,12.45
2023-01-24T02:29:41.016Z,13.07
2023-01-24T02:32:08.356Z,13.98
2023-01-24T02:34:34.794Z,13.43
2023-01-24T02:37:03.247Z,13.82
2023-01-24T02:39:31.957Z,13.18
2023-01-24T02:42:02.196Z,13.00
2023-01-24T02:45:06.829Z,14.23
2023-01-24T02:47:35.801Z,14.23
2023-01-24T02:50:02.626Z,14.57
2023-01-24T02:52:47.779Z,14.02
2023-01-24T02:55:14.532Z,14.63
2023-01-24T02:57:59.674Z,14.85
2023-01-24T03:00:25.948Z,14.30
2023-01-24T03:02:52.413Z,14.15
2023-01-24T03:05:18.721Z,14.30
2023-01-24T03:07:47.552Z,14.35
2023-01-24T03:10:18.670Z,14.23
2023-01-24T03:13:03.728Z,13.98
2023-01-24T03:15:48.577Z,14.40
2023-01-24T03:18:33.559Z,13.40
2023-01-24T03:21:18.313Z,15.05
2023-01-24T03:24:03.085Z,13.15
2023-01-24T03:26:47.837Z,14.32
2023-01-24T03:29:32.548Z,14.23
2023-01-24T03:32:17.440Z,13.23
2023-01-24T03:34:49.885Z,13.82
2023-01-24T03:37:17.762Z,14.07
2023-01-24T03:39:59.476Z,14.02
2023-01-24T03:42:27.414Z,13.65
2023-01-24T03:44:53.714Z,13.68
2023-01-24T03:47:19.965Z,13.18
2023-01-24T03:50:04.775Z,12.85
2023-01-24T03:52:31.115Z,14.00
2023-01-24T03:54:58.233Z,13.68
2023-01-24T03:57:24.807Z,12.70
2023-01-24T03:59:51.111Z,14.13
2023-01-24T04:02:17.875Z,13.63
2023-01-24T04:05:03.314Z,13.80
2023-01-24T04:07:30.152Z,13.30
2023-01-24T04:09:56.438Z,13.50
2023-01-24T04:12:22.743Z,13.38
2023-01-24T04:14:49.024Z,14.60
2023-01-24T04:17:15.304Z,14.40
2023-01-24T04:19:41.588Z,14.48
2023-01-24T04:22:07.947Z,14.38
2023-01-24T04:24:34.236Z,14.80
2023-01-24T04:27:00.555Z,14.30
2023-01-24T04:29:26.855Z,14.50
2023-01-24T04:31:53.120Z,15.43
2023-01-24T04:34:19.438Z,15.85
2023-01-24T04:36:45.744Z,14.75
2023-01-24T04:39:11.985Z,16.42
2023-01-24T04:41:38.316Z,16.42
2023-01-24T04:44:04.565Z,15.70
2023-01-24T04:46:30.859Z,16.33
2023-01-24T04:48:57.209Z,16.50
2023-01-24T04:51:23.554Z,15.75
2023-01-24T04:53:49.832Z,15.90
2023-01-24T04:56:16.111Z,16.17
2023-01-24T04:58:42.342Z,17.00
2023-01-24T05:01:08.675Z,16.30
2023-01-24T05:03:35.006Z,16.77
2023-01-24T05:06:01.297Z,15.23
2023-01-24T05:08:27.691Z,16.20
2023-01-24T05:10:53.997Z,17.20
2023-01-24T05:13:20.284Z,17.92
2023-01-24T05:15:50.279Z,17.58
2023-01-24T05:18:16.886Z,17.55
2023-01-24T05:20:43.238Z,17.85
2023-01-24T05:23:09.502Z,17.10
2023-01-24T05:25:35.782Z,18.65
2023-01-24T05:28:02.089Z,16.58
2023-01-24T05:30:28.355Z,17.23
2023-01-24T05:32:58.079Z,19.33
2023-01-24T05:35:24.994Z,16.45
2023-01-24T05:37:51.833Z,17.55
2023-01-24T05:40:18.296Z,18.83
2023-01-24T05:42:44.613Z,18.27
2023-01-24T05:45:11.365Z,19.23
2023-01-24T05:47:37.663Z,19.58
2023-01-24T05:50:04.039Z,19.45
2023-01-24T05:52:30.331Z,19.15
2023-01-24T05:54:56.780Z,19.25
2023-01-24T05:57:23.083Z,19.63
2023-01-24T05:59:49.421Z,18.75
2023-01-24T06:02:15.806Z,20.10
2023-01-24T06:04:42.131Z,18.58
2023-01-24T06:07:08.403Z,19.83
2023-01-24T06:09:34.713Z,19.00
2023-01-24T06:12:01.011Z,19.05
2023-01-24T06:14:27.256Z,18.73
2023-01-24T06:16:53.543Z,18.80
2023-01-24T06:19:19.993Z,19.27
2023-01-24T06:21:50.593Z,19.90
2023-01-24T06:24:24.061Z,17.65
2023-01-24T06:26:51.018Z,18.55
2023-01-24T06:29:17.440Z,18.95
2023-01-24T06:31:48.583Z,18.67
2023-01-24T06:34:17.635Z,19.15
2023-01-24T06:36:43.848Z,19.90
2023-01-24T06:39:14.845Z,19.20
2023-01-24T06:41:41.336Z,20.20
2023-01-24T06:44:09.296Z,20.17
2023-01-24T06:46:35.705Z,20.30
2023-01-24T06:49:02.017Z,18.58
2023-01-24T06:51:28.307Z,19.77
2023-01-24T06:53:54.604Z,20.33
2023-01-24T06:56:20.913Z,18.85
2023-01-24T06:58:48.263Z,18.83
2023-01-24T07:01:14.587Z,19.80
2023-01-24T07:03:40.905Z,19.13
2023-01-24T07:06:07.166Z,18.98
2023-01-24T07:08:33.442Z,20.35
2023-01-24T07:10:59.798Z,19.38
2023-01-24T07:13:26.178Z,19.10
2023-01-24T07:15:52.846Z,20.42
2023-01-24T07:18:19.954Z,19.63
2023-01-24T07:20:46.629Z,20.80
2023-01-24T07:23:26.287Z,19.52
2023-01-24T07:25:52.800Z,19.83
2023-01-24T07:28:19.318Z,20.23
2023-01-24T07:30:46.644Z,20.73
2023-01-24T07:33:14.291Z,21.10
2023-01-24T07:35:41.343Z,20.67
2023-01-24T07:38:07.765Z,20.98
2023-01-24T07:40:34.292Z,20.60
2023-01-24T07:43:01.656Z,20.80
2023-01-24T07:45:28.571Z,20.73
2023-01-24T07:47:58.593Z,20.92
2023-01-24T07:50:25.793Z,21.40
2023-01-24T07:52:55.263Z,19.98
2023-01-24T07:55:22.230Z,21.17
2023-01-24T07:57:48.743Z,19.60
2023-01-24T08:00:15.642Z,19.48
2023-01-24T08:02:45.320Z,19.10
2023-01-24T08:05:11.773Z,20.77
2023-01-24T08:07:38.210Z,20.20
2023-01-24T08:10:05.191Z,19.08
2023-01-24T08:12:31.596Z,19.15
2023-01-24T08:14:57.828Z,17.15
2023-01-24T08:17:24.037Z,19.75
2023-01-24T08:19:56.507Z,18.10
2023-01-24T08:22:23.780Z,18.15
2023-01-24T08:24:50.011Z,18.20
2023-01-24T08:27:16.248Z,18.40
2023-01-24T08:29:42.595Z,18.20
2023-01-24T08:32:08.885Z,17.50
2023-01-24T08:34:35.195Z,19.15
2023-01-24T08:37:01.554Z,18.35
2023-01-24T08:39:29.093Z,18.02
2023-01-24T08:41:55.679Z,18.75
2023-01-24T08:44:21.958Z,17.58
2023-01-24T08:46:48.190Z,17.70
2023-01-24T08:49:14.428Z,18.77
2023-01-24T08:51:40.678Z,18.75
2023-01-24T08:54:07.204Z,16.52
2023-01-24T08:56:34.183Z,17.83
2023-01-24T08:59:00.537Z,17.65
2023-01-24T09:01:27.351Z,18.10
2023-01-24T09:03:55.789Z,17.73
2023-01-24T09:06:22.191Z,17.05
2023-01-24T09:08:48.433Z,17.30
2023-01-24T09:11:14.721Z,17.92
2023-01-24T09:13:41.013Z,17.10
2023-01-24T09:16:07.483Z,16.75
2023-01-24T09:18:33.797Z,16.52
2023-01-24T09:21:03.736Z,18.33
2023-01-24T09:23:30.159Z,18.70
2023-01-24T09:25:56.525Z,18.23
2023-01-24T09:28:22.840Z,17.98
2023-01-24T09:30:49.760Z,18.85
2023-01-24T09:33:16.581Z,17.92
2023-01-24T09:35:42.900Z,17.80
2023-01-24T09:38:09.237Z,18.20
2023-01-24T09:40:46.958Z,17.17
2023-01-24T09:43:22.208Z,18.73
2023-01-24T09:46:13.468Z,17.50
2023-01-24T09:48:40.427Z,18.92
2023-01-24T09:51:12.459Z,17.85
2023-01-24T09:53:41.875Z,18.25
2023-01-24T09:56:12.924Z,18.83
2023-01-24T09:58:44.652Z,17.83
2023-01-24T10:01:15.137Z,17.27
2023-01-24T10:03:43.084Z,18.00
2023-01-24T10:06:14.826Z,19.08
2023-01-24T10:08:50.817Z,19.40
2023-01-24T10:11:26.278Z,18.58
2023-01-24T10:13:58.763Z,17.45
2023-01-24T10:16:36.584Z,18.05
2023-01-24T10:19:05.696Z,17.60
2023-01-24T10:21:54.865Z,18.05
2023-01-24T10:24:24.000Z,16.67
2023-01-24T10:26:51.325Z,17.38
2023-01-24T10:29:25.068Z,17.67
2023-01-24T10:31:54.136Z,16.45
2023-01-24T10:34:29.204Z,17.95
2023-01-24T10:37:01.689Z,16.90
2023-01-24T10:39:28.302Z,16.25
2023-01-24T10:41:55.255Z,17.15
2023-01-24T10:44:21.467Z,17.45
2023-01-24T10:46:47.681Z,16.75
2023-01-24T10:49:30.459Z,17.02
2023-01-24T10:52:10.821Z,16.80
2023-01-24T10:54:48.582Z,17.38
2023-01-24T10:57:27.305Z,17.27
2023-01-24T10:59:53.962Z,17.48
2023-01-24T11:02:24.850Z,16.38
2023-01-24T11:05:13.367Z,16.63
2023-01-24T11:07:44.982Z,17.55
2023-01-24T11:10:15.196Z,16.27
2023-01-24T11:12:48.089Z,16.40
2023-01-24T11:15:20.615Z,15.57
2023-01-24T11:17:46.965Z,15.02
2023-01-24T11:20:26.775Z,14.95
2023-01-24T11:23:01.626Z,15.67
2023-01-24T11:25:27.883Z,15.50
2023-01-24T11:27:54.163Z,15.63
2023-01-24T11:30:21.848Z,15.38
2023-01-24T11:32:53.658Z,23.25
2023-01-24T11:35:25.689Z,20.92
2023-01-24T11:38:10.960Z,15.77
2023-01-24T11:40:38.115Z,15.73
2023-01-24T11:43:13.241Z,17.27
2023-01-24T11:45:46.771Z,16.65
2023-01-24T11:48:20.709Z,17.50
2023-01-24T11:50:59.457Z,15.88
2023-01-24T11:53:40.156Z,17.10
2023-01-24T11:56:12.172Z,16.27
2023-01-24T11:58:48.767Z,15.82
2023-01-24T12:01:18.244Z,15.98
2023-01-24T12:03:44.583Z,17.27
2023-01-24T12:06:19.785Z,15.75
2023-01-24T12:09:01.042Z,16.67
2023-01-24T12:11:40.720Z,16.60
2023-01-24T12:14:09.811Z,16.38
2023-01-24T12:16:43.651Z,16.05
2023-01-24T12:19:20.890Z,16.90
2023-01-24T12:21:47.211Z,15.38
2023-01-24T12:24:20.354Z,16.17
2023-01-24T12:26:51.567Z,15.02
2023-01-24T12:29:23.785Z,16.58
2023-01-24T12:31:56.943Z,15.98
2023-01-24T12:34:32.019Z,15.88
2023-01-24T12:37:05.449Z,15.85
2023-01-24T12:39:36.133Z,17.10
2023-01-24T12:44:28.583Z,18.27
2023-01-24T12:46:54.987Z,15.15
2023-01-24T12:49:21.837Z,14.90
2023-01-24T12:51:56.505Z,16.15
2023-01-24T12:54:26.919Z,16.58
2023-01-24T12:57:02.331Z,17.08
2023-01-24T12:59:29.529Z,16.77
2023-01-24T13:02:14.001Z,16.70
2023-01-24T13:04:51.300Z,16.58
2023-01-24T13:07:30.995Z,17.25
2023-01-24T13:10:00.411Z,16.75
2023-01-24T13:12:27.967Z,18.73
2023-01-24T13:15:17.376Z,17.85
2023-01-24T13:17:46.731Z,16.95
2023-01-24T13:20:12.980Z,16.50
2023-01-24T13:22:39.259Z,16.67
2023-01-24T13:25:17.542Z,16.88
2023-01-24T13:28:00.386Z,16.60
2023-01-24T13:30:44.094Z,16.70
2023-01-24T13:33:14.998Z,15.30
2023-01-24T13:35:47.514Z,15.60
2023-01-24T13:38:24.769Z,14.95
2023-01-24T13:40:59.063Z,16.50
2023-01-24T13:43:37.134Z,16.70
2023-01-24T13:46:03.768Z,15.45
2023-01-24T13:48:42.298Z,16.40
2023-01-24T13:51:17.762Z,17.45
2023-01-24T13:54:02.518Z,16.55
2023-01-24T13:56:29.158Z,17.02
2023-01-24T13:58:57.912Z,17.00
2023-01-24T14:01:24.842Z,16.90
2023-01-24T14:03:54.072Z,16.65
2023-01-24T14:06:20.491Z,17.48
2023-01-24T14:08:49.577Z,16.15
2023-01-24T14:11:17.833Z,17.10
2023-01-24T14:13:56.100Z,16.13
2023-01-24T14:16:28.628Z,16.75
2023-01-24T14:18:59.120Z,16.67
2023-01-24T14:21:30.944Z,17.33
2023-01-24T14:24:01.822Z,16.50
2023-01-24T14:26:34.542Z,16.90
2023-01-24T14:29:02.932Z,16.23
2023-01-24T14:31:50.491Z,16.25
2023-01-24T14:34:16.768Z,17.73
2023-01-24T14:36:44.064Z,16.42
2023-01-24T14:39:14.218Z,16.45
2023-01-24T14:41:40.972Z,16.30
2023-01-24T14:44:20.895Z,17.58
2023-01-24T14:46:54.872Z,16.23
2023-01-24T14:49:31.116Z,16.35
2023-01-24T14:52:05.436Z,16.75
2023-01-24T14:54:38.492Z,17.05
2023-01-24T14:57:19.256Z,16.35
2023-01-24T15:02:17.817Z,16.38
2023-01-24T15:04:48.502Z,16.13
2023-01-24T15:09:41.665Z,16.33
2023-01-24T15:12:20.136Z,16.60
2023-01-24T15:14:51.907Z,15.82
2023-01-24T15:17:22.867Z,16.83
2023-01-24T15:19:54.347Z,16.15
2023-01-24T15:22:22.247Z,16.05
2023-01-24T15:24:56.471Z,15.52
2023-01-24T15:27:25.732Z,16.10
2023-01-24T15:30:10.846Z,15.65
2023-01-24T15:32:37.111Z,15.18
2023-01-24T15:35:13.537Z,15.32
2023-01-24T15:37:39.984Z,17.13
2023-01-24T15:40:13.521Z,17.75
2023-01-24T15:43:09.798Z,16.40
2023-01-24T15:45:39.566Z,15.57
2023-01-24T15:48:34.917Z,15.53
2023-01-24T15:51:06.890Z,15.70
2023-01-24T15:53:42.766Z,15.55
2023-01-24T15:56:20.741Z,15.00
2023-01-24T15:58:47.475Z,15.45
2023-01-24T16:01:13.924Z,14.80
2023-01-24T16:03:40.225Z,15.77
2023-01-24T16:06:06.537Z,15.77
2023-01-24T16:08:32.888Z,15.80
2023-01-24T16:10:59.724Z,15.30
2023-01-24T16:13:37.091Z,16.95
2023-01-24T16:16:05.939Z,15.68
2023-01-24T16:18:32.224Z,16.80
2023-01-24T16:20:58.593Z,16.13
2023-01-24T16:23:24.976Z,16.42
2023-01-24T16:25:52.224Z,16.63
2023-01-24T16:28:20.329Z,18.80
2023-01-24T16:30:48.352Z,15.98
2023-01-24T16:33:15.386Z,15.63
2023-01-24T16:35:41.880Z,15.38
2023-01-24T16:38:08.816Z,15.57
2023-01-24T16:40:35.178Z,16.52
2023-01-24T16:43:03.199Z,15.68
2023-01-24T16:45:29.503Z,15.77
2023-01-24T16:47:55.915Z,15.88
2023-01-24T16:50:22.200Z,15.77
2023-01-24T16:52:49.121Z,16.75
2023-01-24T16:55:15.495Z,16.92
2023-01-24T16:57:41.839Z,16.77
2023-01-24T17:00:12.992Z,16.73
2023-01-24T17:02:40.351Z,16.50
2023-01-24T17:05:07.289Z,17.08
2023-01-24T17:07:33.739Z,18.00
2023-01-24T17:10:02.574Z,18.60
2023-01-24T17:12:29.659Z,17.98
2023-01-24T17:14:56.019Z,16.60
2023-01-24T17:17:22.334Z,18.45
2023-01-24T17:19:48.581Z,19.00
2023-01-24T17:22:14.826Z,20.63
2023-01-24T17:24:41.115Z,18.42
2023-01-24T17:27:07.359Z,19.20
2023-01-24T17:29:33.651Z,16.73
2023-01-24T17:32:00.039Z,17.48
2023-01-24T17:34:26.433Z,18.95
2023-01-24T17:36:53.422Z,16.63
2023-01-24T17:39:19.992Z,16.52
2023-01-24T17:41:46.494Z,16.95
2023-01-24T17:44:13.232Z,16.30
2023-01-24T17:46:40.007Z,17.10
2023-01-24T17:49:06.363Z,17.27
2023-01-24T17:51:32.843Z,16.08
2023-01-24T17:53:59.509Z,16.08
2023-01-24T17:56:25.984Z,15.85
2023-01-24T17:58:52.332Z,15.90
2023-01-24T18:01:18.697Z,16.33
2023-01-24T18:03:45.012Z,15.10
2023-01-24T18:06:11.439Z,16.65
2023-01-24T18:08:37.819Z,19.00
2023-01-24T18:11:08.691Z,18.25
2023-01-24T18:13:35.344Z,16.40
2023-01-24T18:16:02.193Z,16.17
2023-01-24T18:18:28.557Z,15.32
2023-01-24T18:20:54.858Z,15.75
2023-01-24T18:23:21.162Z,14.93
2023-01-24T18:25:47.431Z,15.65
2023-01-24T18:28:13.751Z,16.58
2023-01-24T18:30:40.143Z,16.00
2023-01-24T18:33:06.407Z,16.27
2023-01-24T18:35:32.708Z,15.60
2023-01-24T18:37:59.075Z,16.23
2023-01-24T18:40:25.374Z,15.80
2023-01-24T18:42:51.678Z,16.98
2023-01-24T18:45:18.009Z,19.25
2023-01-24T18:47:44.264Z,19.50
2023-01-24T18:50:10.849Z,17.30
2023-01-24T18:52:37.165Z,18.08
2023-01-24T18:55:05.344Z,17.33
2023-01-24T18:57:31.964Z,18.65
2023-01-24T18:59:58.211Z,16.58
2023-01-24T19:02:27.128Z,15.38
2023-01-24T19:04:53.412Z,16.50
2023-01-24T19:07:19.707Z,18.60
2023-01-24T19:09:46.000Z,17.50
2023-01-24T19:12:14.281Z,16.55
2023-01-24T19:14:40.522Z,16.95
2023-01-24T19:17:08.135Z,17.60
2023-01-24T19:19:34.521Z,16.75
2023-01-24T19:22:00.847Z,16.45
2023-01-24T19:24:27.815Z,17.50
2023-01-24T19:26:54.137Z,21.95
2023-01-24T19:29:20.477Z,20.45
2023-01-24T19:31:46.844Z,17.48
2023-01-24T19:34:13.210Z,17.13
2023-01-24T19:36:42.301Z,17.70
2023-01-24T19:39:11.322Z,21.52
2023-01-24T19:41:37.573Z,29.25
2023-01-24T19:44:19.477Z,22.05
2023-01-24T19:46:47.896Z,17.95
2023-01-24T19:49:14.220Z,18.00
2023-01-24T19:51:40.475Z,19.25
2023-01-24T19:54:06.941Z,16.65
2023-01-24T19:56:36.224Z,16.67
2023-01-24T19:59:03.892Z,17.20
2023-01-24T20:01:30.393Z,16.35
2023-01-24T20:04:06.146Z,16.60
2023-01-24T20:06:41.334Z,16.40
2023-01-24T20:09:07.624Z,15.75
2023-01-24T20:11:33.921Z,15.35
2023-01-24T20:14:00.281Z,15.63
2023-01-24T20:16:27.858Z,16.02
2023-01-24T20:18:58.079Z,16.25
2023-01-24T20:21:25.397Z,16.27
2023-01-24T20:23:55.236Z,16.42
2023-01-24T20:26:21.972Z,16.73
2023-01-24T20:28:48.305Z,17.10
2023-01-24T20:31:14.738Z,16.42
2023-01-24T20:33:41.341Z,16.25
2023-01-24T20:36:12.053Z,16.02
2023-01-24T20:41:13.056Z,15.65
2023-01-24T20:43:39.993Z,16.30
2023-01-24T20:46:08.244Z,16.45
2023-01-24T20:48:38.191Z,16.27
2023-01-24T20:51:04.934Z,16.80
2023-01-24T20:53:31.360Z,16.90
2023-01-24T20:55:59.140Z,16.25
2023-01-24T20:58:25.854Z,16.80
2023-01-24T21:00:53.134Z,16.80
2023-01-24T21:03:20.138Z,17.63
2023-01-24T21:05:46.440Z,17.90
2023-01-24T21:08:12.751Z,17.42
2023-01-24T21:10:44.998Z,17.20
2023-01-24T21:13:11.227Z,17.42
2023-01-24T21:15:37.591Z,15.48
2023-01-24T21:18:03.896Z,15.52
2023-01-24T21:20:30.137Z,20.23
2023-01-24T21:22:56.436Z,15.95
2023-01-24T21:25:22.699Z,16.75
2023-01-24T21:27:49.547Z,16.63
2023-01-24T21:30:16.046Z,16.80
2023-01-24T21:32:42.293Z,16.38
2023-01-24T21:35:09.027Z,16.60
2023-01-24T21:37:35.465Z,16.55
2023-01-24T21:40:01.776Z,16.55
2023-01-24T21:42:28.253Z,17.25
2023-01-24T21:44:54.632Z,18.25
2023-01-24T21:47:20.935Z,17.45
2023-01-24T21:49:47.180Z,17.83
2023-01-24T21:52:13.915Z,17.67
2023-01-24T21:54:40.210Z,19.15
2023-01-24T21:57:31.869Z,19.15
2023-01-24T21:59:59.414Z,17.20
2023-01-24T22:02:27.133Z,16.58
2023-01-24T22:04:54.351Z,17.80
2023-01-24T22:07:22.665Z,17.33
2023-01-24T22:09:50.779Z,17.50
2023-01-24T22:12:17.068Z,18.77
2023-01-24T22:14:43.538Z,18.38
2023-01-24T22:17:17.662Z,17.88
2023-01-24T22:19:43.980Z,17.48
2023-01-24T22:22:13.157Z,17.25
2023-01-24T22:24:42.278Z,17.13
2023-01-24T22:27:14.332Z,17.40
2023-01-24T22:29:40.762Z,16.70
2023-01-24T22:32:07.476Z,16.05
2023-01-24T22:34:34.916Z,17.27
2023-01-24T22:37:05.495Z,16.98
2023-01-24T22:39:31.809Z,17.63
2023-01-24T22:41:58.059Z,17.05
2023-01-24T22:44:24.315Z,17.85
2023-01-24T22:46:50.568Z,17.05
2023-01-24T22:49:16.820Z,18.17
2023-01-24T22:51:43.148Z,18.13
2023-01-24T22:54:09.523Z,19.38
2023-01-24T22:56:35.829Z,19.08
2023-01-24T22:59:02.147Z,18.15
2023-01-24T23:01:28.391Z,18.50
2023-01-24T23:03:54.661Z,18.77
2023-01-24T23:06:21.037Z,19.13
2023-01-24T23:08:50.531Z,19.00
2023-01-24T23:11:18.420Z,18.33
2023-01-24T23:14:14.271Z,18.35
2023-01-24T23:16:59.492Z,18.95
2023-01-24T23:19:49.111Z,19.15
2023-01-24T23:22:15.990Z,19.10
2023-01-24T23:24:42.521Z,18.67
2023-01-24T23:27:09.243Z,17.05
2023-01-24T23:29:38.210Z,18.77
2023-01-24T23:32:16.005Z,17.67
2023-01-24T23:34:45.376Z,18.60
2023-01-24T23:37:11.811Z,17.60
2023-01-24T23:39:38.047Z,17.80
2023-01-24T23:42:04.376Z,17.95
2023-01-24T23:44:30.660Z,18.55
2023-01-24T23:46:58.081Z,16.83
2023-01-24T23:49:24.419Z,17.73
2023-01-24T23:51:50.715Z,17.48
2023-01-24T23:54:17.092Z,17.90
2023-01-24T23:56:43.335Z,17.83
2023-01-24T23:59:09.622Z,19.85
